sensor_id;sensor_type;location;lat;lon;timestamp;temperature;humidity
592;DHT22;283;53.608;10.046;2022-08-19T00:01:44;21.10;99.90
592;DHT22;283;53.608;10.046;2022-08-19T00:04:20;21.10;99.90
592;DHT22;283;53.608;10.046;2022-08-19T00:06:48;21.00;99.90
592;DHT22;283;53.608;10.046;2022-08-19T00:09:18;21.00;99.90
592;DHT22;283;53.608;10.046;2022-08-19T00:11:46;21.00;99.90
592;DHT22;283;53.608;10.046;2022-08-19T00:14:16;20.90;99.90
592;DHT22;283;53.608;10.046;2022-08-19T00:16:47;20.90;99.90
592;DHT22;283;53.608;10.046;2022-08-19T00:19:16;20.90;99.90
592;DHT22;283;53.608;10.046;2022-08-19T00:21:44;20.80;99.90
592;DHT22;283;53.608;10.046;2022-08-19T00:24:14;20.80;99.90
592;DHT22;283;53.608;10.046;2022-08-19T00:26:42;20.80;99.90
592;DHT22;283;53.608;10.046;2022-08-19T00:29:12;20.80;99.90
592;DHT22;283;53.608;10.046;2022-08-19T00:31:41;20.80;99.90
592;DHT22;283;53.608;10.046;2022-08-19T00:34:12;20.80;99.90
592;DHT22;283;53.608;10.046;2022-08-19T00:36:41;20.80;99.90
592;DHT22;283;53.608;10.046;2022-08-19T00:39:10;20.80;99.90
592;DHT22;283;53.608;10.046;2022-08-19T00:41:38;20.80;99.90
592;DHT22;283;53.608;10.046;2022-08-19T00:44:10;20.70;99.90
592;DHT22;283;53.608;10.046;2022-08-19T00:46:41;20.70;99.90
592;DHT22;283;53.608;10.046;2022-08-19T00:49:14;20.80;99.90
592;DHT22;283;53.608;10.046;2022-08-19T00:51:45;20.70;99.90
592;DHT22;283;53.608;10.046;2022-08-19T00:54:14;20.70;99.90
592;DHT22;283;53.608;10.046;2022-08-19T00:56:43;20.70;99.90
592;DHT22;283;53.608;10.046;2022-08-19T00:59:12;20.80;99.90
592;DHT22;283;53.608;10.046;2022-08-19T01:02:01;20.80;99.90
592;DHT22;283;53.608;10.046;2022-08-19T01:04:30;20.70;99.90
592;DHT22;283;53.608;10.046;2022-08-19T01:07:01;20.70;99.90
592;DHT22;283;53.608;10.046;2022-08-19T01:09:30;20.70;99.90
592;DHT22;283;53.608;10.046;2022-08-19T01:11:58;20.70;99.90
592;DHT22;283;53.608;10.046;2022-08-19T01:14:26;20.70;99.90
592;DHT22;283;53.608;10.046;2022-08-19T01:16:55;20.80;99.90
592;DHT22;283;53.608;10.046;2022-08-19T01:19:31;20.80;99.90
592;DHT22;283;53.608;10.046;2022-08-19T01:22:14;20.80;99.90
592;DHT22;283;53.608;10.046;2022-08-19T01:24:51;20.80;99.90
592;DHT22;283;53.608;10.046;2022-08-19T01:27:20;20.80;99.90
592;DHT22;283;53.608;10.046;2022-08-19T01:29:50;20.80;99.90
592;DHT22;283;53.608;10.046;2022-08-19T01:32:18;20.80;99.90
592;DHT22;283;53.608;10.046;2022-08-19T01:34:59;20.80;99.90
592;DHT22;283;53.608;10.046;2022-08-19T01:37:29;20.80;99.90
592;DHT22;283;53.608;10.046;2022-08-19T01:39:59;20.80;99.90
592;DHT22;283;53.608;10.046;2022-08-19T01:42:27;20.80;99.90
592;DHT22;283;53.608;10.046;2022-08-19T01:44:56;20.80;99.90
592;DHT22;283;53.608;10.046;2022-08-19T01:47:24;20.80;99.90
592;DHT22;283;53.608;10.046;2022-08-19T01:49:52;20.90;99.90
592;DHT22;283;53.608;10.046;2022-08-19T01:52:19;20.90;99.90
592;DHT22;283;53.608;10.046;2022-08-19T01:54:48;20.80;99.90
592;DHT22;283;53.608;10.046;2022-08-19T01:57:17;20.80;99.90
592;DHT22;283;53.608;10.046;2022-08-19T01:59:46;20.80;99.90
592;DHT22;283;53.608;10.046;2022-08-19T02:02:14;20.80;99.90
592;DHT22;283;53.608;10.046;2022-08-19T02:04:42;20.70;99.90
592;DHT22;283;53.608;10.046;2022-08-19T02:07:09;20.70;99.90
592;DHT22;283;53.608;10.046;2022-08-19T02:09:37;20.70;99.90
592;DHT22;283;53.608;10.046;2022-08-19T02:12:07;20.70;99.90
592;DHT22;283;53.608;10.046;2022-08-19T02:14:36;20.60;99.90
592;DHT22;283;53.608;10.046;2022-08-19T02:20:23;20.60;99.90
592;DHT22;283;53.608;10.046;2022-08-19T02:22:50;20.60;99.90
592;DHT22;283;53.608;10.046;2022-08-19T02:25:19;20.60;99.90
592;DHT22;283;53.608;10.046;2022-08-19T02:27:47;20.50;99.90
592;DHT22;283;53.608;10.046;2022-08-19T02:30:17;20.60;99.90
592;DHT22;283;53.608;10.046;2022-08-19T02:32:45;20.60;99.90
592;DHT22;283;53.608;10.046;2022-08-19T02:35:14;20.60;99.90
592;DHT22;283;53.608;10.046;2022-08-19T02:37:42;20.60;99.90
592;DHT22;283;53.608;10.046;2022-08-19T02:40:28;20.60;99.90
592;DHT22;283;53.608;10.046;2022-08-19T02:42:56;20.60;99.90
592;DHT22;283;53.608;10.046;2022-08-19T02:45:25;20.60;99.90
592;DHT22;283;53.608;10.046;2022-08-19T02:47:53;20.60;99.90
592;DHT22;283;53.608;10.046;2022-08-19T02:50:23;20.60;99.90
592;DHT22;283;53.608;10.046;2022-08-19T02:52:51;20.60;99.90
592;DHT22;283;53.608;10.046;2022-08-19T02:55:19;20.50;99.90
592;DHT22;283;53.608;10.046;2022-08-19T02:57:47;20.40;99.90
592;DHT22;283;53.608;10.046;2022-08-19T03:00:15;20.40;99.90
592;DHT22;283;53.608;10.046;2022-08-19T03:02:45;20.40;99.90
592;DHT22;283;53.608;10.046;2022-08-19T03:05:13;20.40;99.90
592;DHT22;283;53.608;10.046;2022-08-19T03:07:41;20.30;99.90
592;DHT22;283;53.608;10.046;2022-08-19T03:10:09;20.30;99.90
592;DHT22;283;53.608;10.046;2022-08-19T03:12:37;20.30;99.90
592;DHT22;283;53.608;10.046;2022-08-19T03:15:07;20.30;99.90
592;DHT22;283;53.608;10.046;2022-08-19T03:17:35;20.30;99.90
592;DHT22;283;53.608;10.046;2022-08-19T03:20:05;20.30;99.90
592;DHT22;283;53.608;10.046;2022-08-19T03:22:33;20.30;99.90
592;DHT22;283;53.608;10.046;2022-08-19T03:25:02;20.30;99.90
592;DHT22;283;53.608;10.046;2022-08-19T03:27:30;20.30;99.90
592;DHT22;283;53.608;10.046;2022-08-19T03:30:00;20.30;99.90
592;DHT22;283;53.608;10.046;2022-08-19T03:32:28;20.30;99.90
592;DHT22;283;53.608;10.046;2022-08-19T03:34:58;20.30;99.90
592;DHT22;283;53.608;10.046;2022-08-19T03:37:28;20.30;99.90
592;DHT22;283;53.608;10.046;2022-08-19T03:39:56;20.30;99.90
592;DHT22;283;53.608;10.046;2022-08-19T03:42:23;20.30;99.90
592;DHT22;283;53.608;10.046;2022-08-19T03:45:13;20.30;99.90
592;DHT22;283;53.608;10.046;2022-08-19T03:47:41;20.30;99.90
592;DHT22;283;53.608;10.046;2022-08-19T03:50:09;20.30;99.90
592;DHT22;283;53.608;10.046;2022-08-19T03:52:39;20.20;99.90
592;DHT22;283;53.608;10.046;2022-08-19T03:55:13;20.10;99.90
592;DHT22;283;53.608;10.046;2022-08-19T03:57:41;20.20;99.90
592;DHT22;283;53.608;10.046;2022-08-19T04:00:10;20.20;99.90
592;DHT22;283;53.608;10.046;2022-08-19T04:02:40;20.20;99.90
592;DHT22;283;53.608;10.046;2022-08-19T04:05:08;20.20;99.90
592;DHT22;283;53.608;10.046;2022-08-19T04:07:36;20.20;99.90
592;DHT22;283;53.608;10.046;2022-08-19T04:10:06;20.20;99.90
592;DHT22;283;53.608;10.046;2022-08-19T04:12:36;20.30;99.90
592;DHT22;283;53.608;10.046;2022-08-19T04:15:04;20.30;99.90
592;DHT22;283;53.608;10.046;2022-08-19T04:17:32;20.30;99.90
592;DHT22;283;53.608;10.046;2022-08-19T04:20:00;20.30;99.90
592;DHT22;283;53.608;10.046;2022-08-19T04:22:32;20.20;99.90
592;DHT22;283;53.608;10.046;2022-08-19T04:25:00;20.20;99.90
592;DHT22;283;53.608;10.046;2022-08-19T04:27:30;20.30;99.90
592;DHT22;283;53.608;10.046;2022-08-19T04:29:57;20.30;99.90
592;DHT22;283;53.608;10.046;2022-08-19T04:32:26;20.30;99.90
592;DHT22;283;53.608;10.046;2022-08-19T04:34:53;20.20;99.90
592;DHT22;283;53.608;10.046;2022-08-19T04:37:42;20.20;99.90
592;DHT22;283;53.608;10.046;2022-08-19T04:40:10;20.20;99.90
592;DHT22;283;53.608;10.046;2022-08-19T04:42:57;20.30;99.90
592;DHT22;283;53.608;10.046;2022-08-19T04:45:25;20.30;99.90
592;DHT22;283;53.608;10.046;2022-08-19T04:48:01;20.30;99.90
592;DHT22;283;53.608;10.046;2022-08-19T04:50:48;20.20;99.90
592;DHT22;283;53.608;10.046;2022-08-19T04:53:17;20.20;99.90
592;DHT22;283;53.608;10.046;2022-08-19T04:55:45;20.20;99.90
592;DHT22;283;53.608;10.046;2022-08-19T04:58:14;20.20;99.90
592;DHT22;283;53.608;10.046;2022-08-19T05:00:42;20.10;99.90
592;DHT22;283;53.608;10.046;2022-08-19T05:03:11;20.10;99.90
592;DHT22;283;53.608;10.046;2022-08-19T05:05:40;20.10;99.90
592;DHT22;283;53.608;10.046;2022-08-19T05:08:11;20.10;99.90
592;DHT22;283;53.608;10.046;2022-08-19T05:10:41;20.10;99.90
592;DHT22;283;53.608;10.046;2022-08-19T05:13:08;20.10;99.90
592;DHT22;283;53.608;10.046;2022-08-19T05:15:38;20.10;99.90
592;DHT22;283;53.608;10.046;2022-08-19T05:18:06;20.20;99.90
592;DHT22;283;53.608;10.046;2022-08-19T05:20:51;20.20;99.90
592;DHT22;283;53.608;10.046;2022-08-19T05:23:37;20.20;99.90
592;DHT22;283;53.608;10.046;2022-08-19T05:26:05;20.30;99.90
592;DHT22;283;53.608;10.046;2022-08-19T05:28:33;20.20;99.90
592;DHT22;283;53.608;10.046;2022-08-19T05:31:03;20.30;99.90
592;DHT22;283;53.608;10.046;2022-08-19T05:33:30;20.30;99.90
592;DHT22;283;53.608;10.046;2022-08-19T05:35:59;20.30;99.90
592;DHT22;283;53.608;10.046;2022-08-19T05:38:28;20.30;99.90
592;DHT22;283;53.608;10.046;2022-08-19T05:40:57;20.20;99.90
592;DHT22;283;53.608;10.046;2022-08-19T05:43:25;20.20;99.90
592;DHT22;283;53.608;10.046;2022-08-19T05:45:53;20.30;99.90
592;DHT22;283;53.608;10.046;2022-08-19T05:48:22;20.20;99.90
592;DHT22;283;53.608;10.046;2022-08-19T05:50:51;20.20;99.90
592;DHT22;283;53.608;10.046;2022-08-19T05:53:19;20.20;99.90
592;DHT22;283;53.608;10.046;2022-08-19T05:55:47;20.10;99.90
592;DHT22;283;53.608;10.046;2022-08-19T05:58:14;20.20;99.90
592;DHT22;283;53.608;10.046;2022-08-19T06:00:44;20.20;99.90
592;DHT22;283;53.608;10.046;2022-08-19T06:03:11;20.20;99.90
592;DHT22;283;53.608;10.046;2022-08-19T06:05:41;20.20;99.90
592;DHT22;283;53.608;10.046;2022-08-19T06:08:18;20.30;99.90
592;DHT22;283;53.608;10.046;2022-08-19T06:11:13;20.30;99.90
592;DHT22;283;53.608;10.046;2022-08-19T06:13:42;20.30;99.90
592;DHT22;283;53.608;10.046;2022-08-19T06:16:11;20.30;99.90
592;DHT22;283;53.608;10.046;2022-08-19T06:18:39;20.30;99.90
592;DHT22;283;53.608;10.046;2022-08-19T06:21:08;20.30;99.90
592;DHT22;283;53.608;10.046;2022-08-19T06:23:36;20.20;99.90
592;DHT22;283;53.608;10.046;2022-08-19T06:26:04;20.20;99.90
592;DHT22;283;53.608;10.046;2022-08-19T06:28:32;20.20;99.90
592;DHT22;283;53.608;10.046;2022-08-19T06:31:06;20.30;99.90
592;DHT22;283;53.608;10.046;2022-08-19T06:33:34;20.30;99.90
592;DHT22;283;53.608;10.046;2022-08-19T06:36:02;20.40;99.90
592;DHT22;283;53.608;10.046;2022-08-19T06:38:32;20.40;99.90
592;DHT22;283;53.608;10.046;2022-08-19T06:41:02;20.50;99.90
592;DHT22;283;53.608;10.046;2022-08-19T06:43:34;20.50;99.90
592;DHT22;283;53.608;10.046;2022-08-19T06:46:11;20.60;99.90
592;DHT22;283;53.608;10.046;2022-08-19T06:48:41;20.60;99.90
592;DHT22;283;53.608;10.046;2022-08-19T06:51:12;20.70;99.90
592;DHT22;283;53.608;10.046;2022-08-19T06:53:46;20.70;99.90
592;DHT22;283;53.608;10.046;2022-08-19T06:56:19;20.70;99.90
592;DHT22;283;53.608;10.046;2022-08-19T06:58:48;20.80;99.90
592;DHT22;283;53.608;10.046;2022-08-19T07:01:20;20.80;99.90
592;DHT22;283;53.608;10.046;2022-08-19T07:03:48;20.70;99.90
592;DHT22;283;53.608;10.046;2022-08-19T07:06:17;20.80;99.90
592;DHT22;283;53.608;10.046;2022-08-19T07:09:11;20.70;99.90
592;DHT22;283;53.608;10.046;2022-08-19T07:11:44;20.70;99.90
592;DHT22;283;53.608;10.046;2022-08-19T07:14:13;20.60;99.90
592;DHT22;283;53.608;10.046;2022-08-19T07:16:47;20.70;99.90
592;DHT22;283;53.608;10.046;2022-08-19T07:19:15;20.70;99.90
592;DHT22;283;53.608;10.046;2022-08-19T07:21:45;20.70;99.90
592;DHT22;283;53.608;10.046;2022-08-19T07:24:15;20.70;99.90
592;DHT22;283;53.608;10.046;2022-08-19T07:26:43;20.70;99.90
592;DHT22;283;53.608;10.046;2022-08-19T07:29:12;20.70;99.90
592;DHT22;283;53.608;10.046;2022-08-19T07:31:40;20.70;99.90
592;DHT22;283;53.608;10.046;2022-08-19T07:34:11;20.80;99.90
592;DHT22;283;53.608;10.046;2022-08-19T07:36:41;20.80;99.90
592;DHT22;283;53.608;10.046;2022-08-19T07:39:11;20.90;99.90
592;DHT22;283;53.608;10.046;2022-08-19T07:41:41;21.00;99.90
592;DHT22;283;53.608;10.046;2022-08-19T07:44:10;21.00;99.90
592;DHT22;283;53.608;10.046;2022-08-19T07:46:41;21.10;99.90
592;DHT22;283;53.608;10.046;2022-08-19T07:49:14;21.10;99.90
592;DHT22;283;53.608;10.046;2022-08-19T07:51:47;21.00;99.90
592;DHT22;283;53.608;10.046;2022-08-19T07:54:16;21.00;99.90
592;DHT22;283;53.608;10.046;2022-08-19T07:56:46;21.00;99.90
592;DHT22;283;53.608;10.046;2022-08-19T07:59:18;21.10;99.90
592;DHT22;283;53.608;10.046;2022-08-19T08:01:47;21.20;99.90
592;DHT22;283;53.608;10.046;2022-08-19T08:04:17;21.40;99.90
592;DHT22;283;53.608;10.046;2022-08-19T08:07:03;21.40;99.90
592;DHT22;283;53.608;10.046;2022-08-19T08:09:49;21.40;99.90
592;DHT22;283;53.608;10.046;2022-08-19T08:12:20;21.40;99.90
592;DHT22;283;53.608;10.046;2022-08-19T08:15:03;21.30;99.90
592;DHT22;283;53.608;10.046;2022-08-19T08:17:34;21.30;99.90
592;DHT22;283;53.608;10.046;2022-08-19T08:20:18;21.30;99.90
592;DHT22;283;53.608;10.046;2022-08-19T08:22:46;21.30;99.90
592;DHT22;283;53.608;10.046;2022-08-19T08:25:32;21.40;99.90
592;DHT22;283;53.608;10.046;2022-08-19T08:28:04;21.40;99.90
592;DHT22;283;53.608;10.046;2022-08-19T08:30:37;21.40;99.90
592;DHT22;283;53.608;10.046;2022-08-19T08:33:11;21.40;99.90
592;DHT22;283;53.608;10.046;2022-08-19T08:35:40;21.40;99.90
592;DHT22;283;53.608;10.046;2022-08-19T08:38:09;21.40;99.90
592;DHT22;283;53.608;10.046;2022-08-19T08:40:44;21.40;99.90
592;DHT22;283;53.608;10.046;2022-08-19T08:43:22;21.40;99.90
592;DHT22;283;53.608;10.046;2022-08-19T08:46:01;21.30;99.90
592;DHT22;283;53.608;10.046;2022-08-19T08:48:37;21.40;99.90
592;DHT22;283;53.608;10.046;2022-08-19T08:51:10;21.40;99.90
592;DHT22;283;53.608;10.046;2022-08-19T08:53:46;21.30;99.90
592;DHT22;283;53.608;10.046;2022-08-19T08:56:21;21.30;99.90
592;DHT22;283;53.608;10.046;2022-08-19T08:58:59;21.20;99.90
592;DHT22;283;53.608;10.046;2022-08-19T09:01:30;21.30;99.90
592;DHT22;283;53.608;10.046;2022-08-19T09:03:58;21.30;99.90
592;DHT22;283;53.608;10.046;2022-08-19T09:06:33;21.40;99.90
592;DHT22;283;53.608;10.046;2022-08-19T09:09:14;21.40;99.90
592;DHT22;283;53.608;10.046;2022-08-19T09:11:53;21.40;99.90
592;DHT22;283;53.608;10.046;2022-08-19T09:14:34;21.50;99.90
592;DHT22;283;53.608;10.046;2022-08-19T09:17:21;21.50;99.90
592;DHT22;283;53.608;10.046;2022-08-19T09:19:59;21.40;99.90
592;DHT22;283;53.608;10.046;2022-08-19T09:22:35;21.30;99.90
592;DHT22;283;53.608;10.046;2022-08-19T09:25:03;21.40;99.90
592;DHT22;283;53.608;10.046;2022-08-19T09:27:32;21.40;99.90
592;DHT22;283;53.608;10.046;2022-08-19T09:30:13;21.40;99.90
592;DHT22;283;53.608;10.046;2022-08-19T09:32:42;21.50;99.90
592;DHT22;283;53.608;10.046;2022-08-19T09:35:11;21.50;99.90
592;DHT22;283;53.608;10.046;2022-08-19T09:37:39;21.40;99.90
592;DHT22;283;53.608;10.046;2022-08-19T09:40:09;21.50;99.90
592;DHT22;283;53.608;10.046;2022-08-19T09:42:38;21.50;99.90
592;DHT22;283;53.608;10.046;2022-08-19T09:45:19;21.60;99.90
592;DHT22;283;53.608;10.046;2022-08-19T09:47:48;21.70;99.90
592;DHT22;283;53.608;10.046;2022-08-19T09:50:20;21.70;99.90
592;DHT22;283;53.608;10.046;2022-08-19T09:52:48;21.80;99.90
592;DHT22;283;53.608;10.046;2022-08-19T09:55:23;21.90;99.90
592;DHT22;283;53.608;10.046;2022-08-19T09:58:00;21.90;99.90
592;DHT22;283;53.608;10.046;2022-08-19T10:00:29;21.80;99.90
592;DHT22;283;53.608;10.046;2022-08-19T10:02:58;21.80;99.90
592;DHT22;283;53.608;10.046;2022-08-19T10:05:26;21.80;99.90
592;DHT22;283;53.608;10.046;2022-08-19T10:08:14;21.80;99.90
592;DHT22;283;53.608;10.046;2022-08-19T10:10:43;21.90;99.90
592;DHT22;283;53.608;10.046;2022-08-19T10:13:13;21.90;99.90
592;DHT22;283;53.608;10.046;2022-08-19T10:15:43;22.00;99.90
592;DHT22;283;53.608;10.046;2022-08-19T10:18:14;22.00;99.90
592;DHT22;283;53.608;10.046;2022-08-19T10:20:45;22.00;99.90
592;DHT22;283;53.608;10.046;2022-08-19T10:23:18;22.10;99.90
592;DHT22;283;53.608;10.046;2022-08-19T10:25:47;22.00;99.90
592;DHT22;283;53.608;10.046;2022-08-19T10:28:15;22.00;99.90
592;DHT22;283;53.608;10.046;2022-08-19T10:30:46;22.00;99.90
592;DHT22;283;53.608;10.046;2022-08-19T10:33:14;22.10;99.90
592;DHT22;283;53.608;10.046;2022-08-19T10:36:05;22.20;99.90
592;DHT22;283;53.608;10.046;2022-08-19T10:38:34;22.20;99.90
592;DHT22;283;53.608;10.046;2022-08-19T10:41:10;22.20;99.90
592;DHT22;283;53.608;10.046;2022-08-19T10:43:38;22.30;99.90
592;DHT22;283;53.608;10.046;2022-08-19T10:46:09;22.30;99.90
592;DHT22;283;53.608;10.046;2022-08-19T10:48:43;22.40;99.90
592;DHT22;283;53.608;10.046;2022-08-19T10:51:11;22.40;99.90
592;DHT22;283;53.608;10.046;2022-08-19T10:53:57;22.40;99.90
592;DHT22;283;53.608;10.046;2022-08-19T10:56:26;22.40;99.90
592;DHT22;283;53.608;10.046;2022-08-19T10:59:12;22.50;99.90
592;DHT22;283;53.608;10.046;2022-08-19T11:01:43;22.50;99.90
592;DHT22;283;53.608;10.046;2022-08-19T11:04:12;22.40;99.90
592;DHT22;283;53.608;10.046;2022-08-19T11:06:40;22.40;99.90
592;DHT22;283;53.608;10.046;2022-08-19T11:09:10;22.40;99.90
592;DHT22;283;53.608;10.046;2022-08-19T11:11:38;22.40;99.90
592;DHT22;283;53.608;10.046;2022-08-19T11:14:08;22.50;99.90
592;DHT22;283;53.608;10.046;2022-08-19T11:16:36;22.40;99.90
592;DHT22;283;53.608;10.046;2022-08-19T11:19:07;22.30;99.90
592;DHT22;283;53.608;10.046;2022-08-19T11:21:38;22.30;99.90
592;DHT22;283;53.608;10.046;2022-08-19T11:24:08;22.30;99.90
592;DHT22;283;53.608;10.046;2022-08-19T11:26:38;22.30;99.90
592;DHT22;283;53.608;10.046;2022-08-19T11:29:08;22.40;99.90
592;DHT22;283;53.608;10.046;2022-08-19T11:31:40;22.50;99.90
592;DHT22;283;53.608;10.046;2022-08-19T11:34:11;22.50;99.90
592;DHT22;283;53.608;10.046;2022-08-19T11:36:42;22.70;99.90
592;DHT22;283;53.608;10.046;2022-08-19T11:39:12;22.90;99.90
592;DHT22;283;53.608;10.046;2022-08-19T11:41:40;23.00;99.90
592;DHT22;283;53.608;10.046;2022-08-19T11:44:08;23.20;99.90
592;DHT22;283;53.608;10.046;2022-08-19T11:46:37;23.40;99.90
592;DHT22;283;53.608;10.046;2022-08-19T11:49:06;23.50;99.90
592;DHT22;283;53.608;10.046;2022-08-19T11:51:41;23.50;99.90
592;DHT22;283;53.608;10.046;2022-08-19T11:54:11;23.60;99.90
592;DHT22;283;53.608;10.046;2022-08-19T11:56:40;23.70;99.90
592;DHT22;283;53.608;10.046;2022-08-19T11:59:08;23.80;99.90
592;DHT22;283;53.608;10.046;2022-08-19T12:01:40;23.80;99.90
592;DHT22;283;53.608;10.046;2022-08-19T12:04:10;23.90;99.90
592;DHT22;283;53.608;10.046;2022-08-19T12:06:39;24.00;99.90
592;DHT22;283;53.608;10.046;2022-08-19T12:09:10;24.00;99.90
592;DHT22;283;53.608;10.046;2022-08-19T12:11:38;24.00;99.90
592;DHT22;283;53.608;10.046;2022-08-19T12:14:10;24.00;99.90
592;DHT22;283;53.608;10.046;2022-08-19T12:16:40;24.10;99.90
592;DHT22;283;53.608;10.046;2022-08-19T12:19:18;24.00;99.90
592;DHT22;283;53.608;10.046;2022-08-19T12:21:49;24.00;99.90
592;DHT22;283;53.608;10.046;2022-08-19T12:24:19;24.00;99.90
592;DHT22;283;53.608;10.046;2022-08-19T12:26:50;24.00;99.90
592;DHT22;283;53.608;10.046;2022-08-19T12:29:20;24.10;99.90
592;DHT22;283;53.608;10.046;2022-08-19T12:31:49;24.10;99.90
592;DHT22;283;53.608;10.046;2022-08-19T12:34:17;24.20;99.90
592;DHT22;283;53.608;10.046;2022-08-19T12:36:46;24.30;99.90
592;DHT22;283;53.608;10.046;2022-08-19T12:39:15;24.40;99.90
592;DHT22;283;53.608;10.046;2022-08-19T12:41:45;24.50;99.90
592;DHT22;283;53.608;10.046;2022-08-19T12:44:21;24.80;99.90
592;DHT22;283;53.608;10.046;2022-08-19T12:46:57;24.90;99.90
592;DHT22;283;53.608;10.046;2022-08-19T12:49:27;25.10;99.90
592;DHT22;283;53.608;10.046;2022-08-19T12:52:15;25.30;99.90
592;DHT22;283;53.608;10.046;2022-08-19T12:54:49;25.50;99.90
592;DHT22;283;53.608;10.046;2022-08-19T12:57:22;25.60;99.90
592;DHT22;283;53.608;10.046;2022-08-19T13:00:00;25.70;99.90
592;DHT22;283;53.608;10.046;2022-08-19T13:02:31;25.80;99.90
592;DHT22;283;53.608;10.046;2022-08-19T13:05:07;25.80;99.90
592;DHT22;283;53.608;10.046;2022-08-19T13:07:36;25.80;99.90
592;DHT22;283;53.608;10.046;2022-08-19T13:10:07;25.70;99.90
592;DHT22;283;53.608;10.046;2022-08-19T13:12:36;25.60;99.90
592;DHT22;283;53.608;10.046;2022-08-19T13:15:05;25.50;99.90
592;DHT22;283;53.608;10.046;2022-08-19T13:17:38;25.40;99.90
592;DHT22;283;53.608;10.046;2022-08-19T13:20:08;25.30;99.90
592;DHT22;283;53.608;10.046;2022-08-19T13:22:37;25.30;99.90
592;DHT22;283;53.608;10.046;2022-08-19T13:25:06;25.20;99.90
592;DHT22;283;53.608;10.046;2022-08-19T13:27:37;25.30;99.90
592;DHT22;283;53.608;10.046;2022-08-19T13:30:08;25.20;99.90
592;DHT22;283;53.608;10.046;2022-08-19T13:32:54;25.10;99.90
592;DHT22;283;53.608;10.046;2022-08-19T13:35:45;25.10;99.90
592;DHT22;283;53.608;10.046;2022-08-19T13:38:15;25.10;99.90
592;DHT22;283;53.608;10.046;2022-08-19T13:40:43;25.20;99.90
592;DHT22;283;53.608;10.046;2022-08-19T13:43:13;25.30;99.90
592;DHT22;283;53.608;10.046;2022-08-19T13:45:50;25.30;99.90
592;DHT22;283;53.608;10.046;2022-08-19T13:48:19;25.20;99.90
592;DHT22;283;53.608;10.046;2022-08-19T13:50:47;25.10;99.90
592;DHT22;283;53.608;10.046;2022-08-19T13:53:15;25.00;99.90
592;DHT22;283;53.608;10.046;2022-08-19T13:55:44;25.00;99.90
592;DHT22;283;53.608;10.046;2022-08-19T13:58:14;25.00;99.90
592;DHT22;283;53.608;10.046;2022-08-19T14:00:45;25.00;99.90
592;DHT22;283;53.608;10.046;2022-08-19T14:03:13;25.00;99.90
592;DHT22;283;53.608;10.046;2022-08-19T14:05:41;25.00;99.90
592;DHT22;283;53.608;10.046;2022-08-19T14:08:09;25.00;99.90
592;DHT22;283;53.608;10.046;2022-08-19T14:10:38;24.90;99.90
592;DHT22;283;53.608;10.046;2022-08-19T14:13:07;24.80;99.90
592;DHT22;283;53.608;10.046;2022-08-19T14:15:37;24.80;99.90
592;DHT22;283;53.608;10.046;2022-08-19T14:18:05;24.80;99.90
592;DHT22;283;53.608;10.046;2022-08-19T14:20:34;24.80;99.90
592;DHT22;283;53.608;10.046;2022-08-19T14:23:02;24.80;99.90
592;DHT22;283;53.608;10.046;2022-08-19T14:25:32;24.80;99.90
592;DHT22;283;53.608;10.046;2022-08-19T14:28:00;24.70;99.90
592;DHT22;283;53.608;10.046;2022-08-19T14:30:31;24.70;99.90
592;DHT22;283;53.608;10.046;2022-08-19T14:33:02;24.60;99.90
592;DHT22;283;53.608;10.046;2022-08-19T14:35:31;24.50;99.90
592;DHT22;283;53.608;10.046;2022-08-19T14:38:01;24.50;99.90
592;DHT22;283;53.608;10.046;2022-08-19T14:40:30;24.40;99.90
592;DHT22;283;53.608;10.046;2022-08-19T14:43:00;24.40;99.90
592;DHT22;283;53.608;10.046;2022-08-19T14:45:31;24.40;99.90
592;DHT22;283;53.608;10.046;2022-08-19T14:48:00;24.40;99.90
592;DHT22;283;53.608;10.046;2022-08-19T14:50:28;24.50;99.90
592;DHT22;283;53.608;10.046;2022-08-19T14:53:00;24.50;99.90
592;DHT22;283;53.608;10.046;2022-08-19T14:55:41;24.60;99.90
592;DHT22;283;53.608;10.046;2022-08-19T14:58:09;24.60;99.90
592;DHT22;283;53.608;10.046;2022-08-19T15:00:56;24.60;99.90
592;DHT22;283;53.608;10.046;2022-08-19T15:03:26;24.60;99.90
592;DHT22;283;53.608;10.046;2022-08-19T15:05:54;24.50;99.90
592;DHT22;283;53.608;10.046;2022-08-19T15:08:24;24.50;99.90
592;DHT22;283;53.608;10.046;2022-08-19T15:10:53;24.50;99.90
592;DHT22;283;53.608;10.046;2022-08-19T15:13:23;24.50;99.90
592;DHT22;283;53.608;10.046;2022-08-19T15:15:52;24.60;99.90
592;DHT22;283;53.608;10.046;2022-08-19T15:18:20;24.60;99.90
592;DHT22;283;53.608;10.046;2022-08-19T15:20:50;24.70;99.90
592;DHT22;283;53.608;10.046;2022-08-19T15:23:20;24.70;99.90
592;DHT22;283;53.608;10.046;2022-08-19T15:25:50;24.70;99.90
592;DHT22;283;53.608;10.046;2022-08-19T15:28:22;24.70;99.90
592;DHT22;283;53.608;10.046;2022-08-19T15:30:51;24.80;99.90
592;DHT22;283;53.608;10.046;2022-08-19T15:33:19;24.80;99.90
592;DHT22;283;53.608;10.046;2022-08-19T15:35:49;24.90;99.90
592;DHT22;283;53.608;10.046;2022-08-19T15:38:19;25.00;99.90
592;DHT22;283;53.608;10.046;2022-08-19T15:40:49;25.00;99.90
592;DHT22;283;53.608;10.046;2022-08-19T15:43:18;25.10;99.90
592;DHT22;283;53.608;10.046;2022-08-19T15:45:47;25.10;99.90
592;DHT22;283;53.608;10.046;2022-08-19T15:48:15;25.20;99.90
592;DHT22;283;53.608;10.046;2022-08-19T15:50:43;25.20;99.90
592;DHT22;283;53.608;10.046;2022-08-19T15:53:12;25.30;99.90
592;DHT22;283;53.608;10.046;2022-08-19T15:55:43;25.30;99.90
592;DHT22;283;53.608;10.046;2022-08-19T15:58:16;25.40;99.90
592;DHT22;283;53.608;10.046;2022-08-19T16:01:04;25.50;99.90
592;DHT22;283;53.608;10.046;2022-08-19T16:03:54;25.60;99.90
592;DHT22;283;53.608;10.046;2022-08-19T16:06:44;25.50;99.90
592;DHT22;283;53.608;10.046;2022-08-19T16:09:14;25.50;99.90
592;DHT22;283;53.608;10.046;2022-08-19T16:11:43;25.40;99.90
592;DHT22;283;53.608;10.046;2022-08-19T16:14:13;25.40;99.90
592;DHT22;283;53.608;10.046;2022-08-19T16:16:41;25.30;99.90
592;DHT22;283;53.608;10.046;2022-08-19T16:19:13;25.30;99.90
592;DHT22;283;53.608;10.046;2022-08-19T16:21:43;25.20;99.90
592;DHT22;283;53.608;10.046;2022-08-19T16:24:14;25.10;99.90
592;DHT22;283;53.608;10.046;2022-08-19T16:26:43;25.10;99.90
592;DHT22;283;53.608;10.046;2022-08-19T16:29:13;25.00;99.90
592;DHT22;283;53.608;10.046;2022-08-19T16:31:59;25.00;99.90
592;DHT22;283;53.608;10.046;2022-08-19T16:34:28;24.80;99.90
592;DHT22;283;53.608;10.046;2022-08-19T16:36:56;24.80;99.90
592;DHT22;283;53.608;10.046;2022-08-19T16:39:26;24.70;99.90
592;DHT22;283;53.608;10.046;2022-08-19T16:41:53;24.50;99.90
592;DHT22;283;53.608;10.046;2022-08-19T16:44:21;24.40;99.90
592;DHT22;283;53.608;10.046;2022-08-19T16:46:49;24.40;99.90